ADDS TAF Board INFO
 
 

IDs: Format: Expanded Condensed

KTPA - Tampa Intl Arpt, FL, US

Issued at 1459 UTC 31 Jul 2014
Time1653Z31/18Z31/19Z31/20Z31/21Z31/22Z31/23Z01/00Z01/01Z01/02Z01/03Z01/04Z01/05Z01/06Z
TypeOBSPRVLPRVLPRVLPRVLPRVLPRVLPRVLPRVLPRVLPRVLPRVLPRVLPRVL
Vis10>6>6>6>6>6>6>6>6>6>6>6>6>6
Cig----------------------------
CoverSCTSCTSCTSCTSCTSCTSCTSCTSCTSCTSCTSCTSCTSCT
FltCat--VFRVFRVFRVFRVFRVFRVFRVFRVFRVFRVFRVFRVFR
Wx----------------------------
WDir250270270270270270270270270VRBVRBVRBVRBVRB
WSpd78888888833333
WGst----------------------------
R01/19
XWnd688888888VRBVRBVRBVRBVRB
HWnd-3-0-0-0-0-0-0-0-0VRBVRBVRBVRBVRB
R10/28
XWnd-3-0-0-0-0-0-0-0-0VRBVRBVRBVRBVRB
HWnd-6-8-8-8-8-8-8-8-8VRBVRBVRBVRBVRB
Raw TAF
KTPA 311459Z 3115/0112 VRB04KT P6SM SCT040 SCT250
  FM311800 27008KT P6SM SCT050 SCT250
  FM010200 VRB03KT P6SM SCT250


Raw METAR
KTPA 311653Z 25007KT 10SM FEW055 SCT110 SCT250 31/21 A3000 RMK AO2 SLP159 T03060206

TAF Board Legend

Hazard Green Yellow Red Magenta
Visibility (sm) >5 >2.99 >0.99 <=0.99
Ceiling (100 ft) >30 >9.99 >4.99 <=4.99
Wind Speed (kt) <10 <20 <30 >=30
Wind Gust (kt) <10 <20 <30 >=30
Weather No Wx Reported Light precipitation Moderate precipitation Heavy precipitation
Flight Category VFR MVFR IFR LIFR

Page loaded:  17:34 UTC  |   10:34 AM Pacific  |   11:34 AM Mountain  |   12:34 PM Central  |   01:34 PM Eastern

 

ADVISORIES

FORECASTS

FORECASTS

OBSERVATIONS

USER TOOLS

ABOUT US